createdAt,value
2019-05-01T00:01:38.295Z,7.92
2019-05-01T00:04:18.139Z,10.50
2019-05-01T00:06:49.121Z,11.30
2019-05-01T00:09:17.620Z,10.72
2019-05-01T00:11:45.861Z,13.25
2019-05-01T00:14:14.039Z,15.95
2019-05-01T00:16:42.697Z,13.08
2019-05-01T00:19:10.945Z,12.85
2019-05-01T00:21:39.229Z,16.00
2019-05-01T00:24:07.469Z,11.20
2019-05-01T00:26:35.806Z,12.10
2019-05-01T00:29:04.285Z,8.50
2019-05-01T00:31:32.422Z,13.62
2019-05-01T00:34:00.579Z,14.80
2019-05-01T00:36:28.701Z,16.55
2019-05-01T00:38:56.831Z,13.32
2019-05-01T00:41:25.061Z,11.43
2019-05-01T00:43:53.259Z,12.50
2019-05-01T00:46:21.481Z,9.85
2019-05-01T00:48:49.669Z,13.78
2019-05-01T00:51:17.925Z,8.65
2019-05-01T00:53:46.099Z,20.70
2019-05-01T00:56:42.233Z,11.35
2019-05-01T00:59:24.905Z,14.58
2019-05-01T01:02:10.375Z,11.38
2019-05-01T01:04:39.089Z,15.60
2019-05-01T01:07:07.348Z,16.05
2019-05-01T01:09:35.573Z,15.48
2019-05-01T01:12:03.657Z,16.45
2019-05-01T01:14:31.809Z,19.67
2019-05-01T01:16:59.968Z,18.82
2019-05-01T01:19:28.099Z,20.12
2019-05-01T01:21:56.388Z,14.35
2019-05-01T01:24:24.667Z,17.92
2019-05-01T01:26:52.808Z,12.58
2019-05-01T01:29:21.235Z,15.38
2019-05-01T01:31:49.352Z,15.08
2019-05-01T01:34:17.567Z,20.97
2019-05-01T01:36:45.721Z,21.17
2019-05-01T01:39:13.926Z,24.55
2019-05-01T01:41:42.442Z,23.00
2019-05-01T01:44:17.441Z,23.45
2019-05-01T01:46:46.316Z,28.40
2019-05-01T01:49:15.501Z,28.92
2019-05-01T01:51:44.022Z,28.07
2019-05-01T01:54:12.690Z,25.65
2019-05-01T01:56:41.037Z,31.02
2019-05-01T01:59:09.344Z,25.52
2019-05-01T02:01:51.966Z,24.50
2019-05-01T02:04:51.355Z,23.45
2019-05-01T02:07:19.567Z,19.25
2019-05-01T02:09:47.696Z,23.57
2019-05-01T02:12:16.406Z,17.40
2019-05-01T02:14:44.554Z,20.48
2019-05-01T02:17:12.826Z,16.67
2019-05-01T02:19:41.052Z,23.05
2019-05-01T02:22:09.212Z,9.38
2019-05-01T02:24:37.581Z,24.32
2019-05-01T02:27:09.740Z,20.25
2019-05-01T02:29:44.900Z,16.20
2019-05-01T02:32:13.747Z,21.02
2019-05-01T02:35:02.334Z,28.07
2019-05-01T02:37:32.614Z,24.98
2019-05-01T02:40:03.667Z,46.23
2019-05-01T02:42:33.080Z,55.98
2019-05-01T02:45:04.408Z,56.95
2019-05-01T02:47:36.324Z,42.98
2019-05-01T02:50:10.487Z,54.90
2019-05-01T02:52:41.430Z,60.38
2019-05-01T02:55:39.317Z,63.13
2019-05-01T02:58:09.735Z,65.75
2019-05-01T03:00:38.501Z,56.85
2019-05-01T03:03:07.015Z,69.42
2019-05-01T03:05:35.334Z,31.95
2019-05-01T03:08:08.228Z,52.27
2019-05-01T03:10:36.498Z,58.33
2019-05-01T03:13:04.946Z,60.33
2019-05-01T03:15:35.620Z,57.65
2019-05-01T03:18:28.091Z,50.08
2019-05-01T03:21:10.859Z,49.60
2019-05-01T03:23:45.697Z,56.28
2019-05-01T03:26:13.916Z,58.38
2019-05-01T03:28:42.062Z,61.63
2019-05-01T03:31:10.279Z,52.23
2019-05-01T03:36:46.795Z,59.23
2019-05-01T03:39:16.170Z,60.73
2019-05-01T03:41:44.872Z,55.08
2019-05-01T03:44:13.072Z,54.80
2019-05-01T03:46:41.214Z,56.70
2019-05-01T03:49:09.668Z,51.92
2019-05-01T03:51:38.120Z,55.17
2019-05-01T03:54:06.691Z,57.13
2019-05-01T03:56:34.825Z,55.12
2019-05-01T03:59:03.872Z,43.73
2019-05-01T04:01:51.128Z,49.27
2019-05-01T04:04:22.118Z,44.60
2019-05-01T04:06:50.514Z,45.38
2019-05-01T04:09:18.924Z,52.13
2019-05-01T04:11:47.407Z,49.58
2019-05-01T04:14:15.751Z,45.85
2019-05-01T04:16:46.283Z,51.92
2019-05-01T04:19:14.869Z,51.02
2019-05-01T04:21:48.646Z,50.33
2019-05-01T04:24:16.818Z,41.30
2019-05-01T04:26:45.146Z,45.28
2019-05-01T04:29:32.458Z,43.92
2019-05-01T04:32:13.756Z,48.10
2019-05-01T04:34:49.079Z,46.18
2019-05-01T04:37:24.508Z,51.53
2019-05-01T04:39:52.655Z,42.95
2019-05-01T04:42:20.781Z,47.65
2019-05-01T04:44:49.049Z,49.98
2019-05-01T04:47:17.854Z,33.00
2019-05-01T04:49:46.372Z,40.12
2019-05-01T04:52:14.570Z,56.33
2019-05-01T04:54:42.858Z,49.03
2019-05-01T04:57:11.178Z,52.78
2019-05-01T04:59:59.687Z,50.12
2019-05-01T05:02:46.792Z,48.85
2019-05-01T05:05:15.443Z,45.33
2019-05-01T05:07:43.597Z,34.10
2019-05-01T05:10:11.861Z,58.42
2019-05-01T05:12:48.520Z,46.85
2019-05-01T05:15:27.275Z,31.65
2019-05-01T05:17:55.725Z,46.08
2019-05-01T05:20:24.504Z,46.23
2019-05-01T05:22:52.784Z,42.83
2019-05-01T05:25:21.001Z,43.92
2019-05-01T05:27:51.631Z,51.00
2019-05-01T05:33:30.410Z,43.80
2019-05-01T05:35:59.659Z,38.10
2019-05-01T05:38:48.797Z,41.68
2019-05-01T05:41:19.060Z,39.83
2019-05-01T05:43:47.343Z,38.80
2019-05-01T05:46:15.977Z,40.98
2019-05-01T05:48:44.382Z,37.35
2019-05-01T05:51:35.958Z,37.38
2019-05-01T05:54:11.838Z,37.45
2019-05-01T05:56:48.436Z,39.05
2019-05-01T05:59:22.113Z,36.00
2019-05-01T06:08:06.754Z,37.55
2019-05-01T06:10:58.567Z,34.08
2019-05-01T06:13:47.015Z,31.30
2019-05-01T06:16:32.134Z,34.50
2019-05-01T06:19:17.438Z,36.20
2019-05-01T06:22:10.301Z,32.48
2019-05-01T06:24:42.362Z,33.65
2019-05-01T06:27:13.729Z,32.58
2019-05-01T06:29:41.528Z,34.55
2019-05-01T06:32:09.792Z,32.17
2019-05-01T06:34:38.026Z,33.45
2019-05-01T06:37:06.187Z,31.55
2019-05-01T06:39:34.656Z,33.60
2019-05-01T06:42:04.214Z,36.48
2019-05-01T06:44:44.164Z,36.00
2019-05-01T06:47:22.594Z,36.55
2019-05-01T06:50:06.002Z,38.33
2019-05-01T06:52:36.282Z,34.55
2019-05-01T06:55:04.891Z,32.23
2019-05-01T06:57:33.397Z,28.55
2019-05-01T07:00:03.176Z,27.30
2019-05-01T07:02:34.945Z,30.88
2019-05-01T07:07:31.760Z,30.92
2019-05-01T07:10:01.326Z,28.62
2019-05-01T07:12:51.342Z,28.02
2019-05-01T07:15:21.907Z,29.82
2019-05-01T07:20:36.541Z,34.03
2019-05-01T07:23:05.547Z,34.92
2019-05-01T07:25:34.810Z,30.35
2019-05-01T07:28:03.812Z,33.67
2019-05-01T07:30:54.966Z,31.23
2019-05-01T07:33:20.200Z,29.35
2019-05-01T07:35:49.080Z,25.02
2019-05-01T07:38:17.466Z,25.43
2019-05-01T07:40:45.966Z,27.73
2019-05-01T07:43:30.621Z,26.30
2019-05-01T07:46:08.359Z,26.20
2019-05-01T07:48:41.721Z,26.70
2019-05-01T07:51:09.473Z,27.52
2019-05-01T07:53:38.808Z,24.57
2019-05-01T07:56:08.129Z,24.72
2019-05-01T07:58:36.691Z,27.58
2019-05-01T08:01:32.948Z,18.55
2019-05-01T08:04:01.161Z,19.67
2019-05-01T08:06:29.502Z,23.50
2019-05-01T08:08:57.762Z,19.70
2019-05-01T08:11:26.107Z,19.73
2019-05-01T08:14:01.503Z,24.92
2019-05-01T08:16:24.317Z,19.42
2019-05-01T08:18:59.160Z,24.70
2019-05-01T08:21:47.627Z,20.12
2019-05-01T08:24:17.905Z,23.15
2019-05-01T08:26:46.044Z,24.55
2019-05-01T08:29:41.974Z,19.48
2019-05-01T08:32:33.661Z,27.45
2019-05-01T08:35:05.178Z,21.77
2019-05-01T08:37:33.459Z,23.55
2019-05-01T08:40:01.693Z,24.23
2019-05-01T08:42:29.905Z,21.10
2019-05-01T08:45:23.321Z,20.23
2019-05-01T08:48:01.487Z,22.75
2019-05-01T08:50:29.901Z,24.12
2019-05-01T08:52:58.194Z,23.60
2019-05-01T08:55:26.433Z,17.27
2019-05-01T08:57:54.631Z,23.40
2019-05-01T09:00:22.909Z,23.75
2019-05-01T09:02:51.111Z,19.07
2019-05-01T09:05:28.163Z,27.15
2019-05-01T09:07:51.297Z,25.97
2019-05-01T09:10:21.604Z,20.77
2019-05-01T09:12:52.095Z,18.30
2019-05-01T09:15:19.712Z,25.92
2019-05-01T09:17:47.906Z,26.07
2019-05-01T09:20:16.817Z,24.10
2019-05-01T09:22:45.109Z,22.85
2019-05-01T09:25:15.380Z,24.15
2019-05-01T09:30:42.754Z,25.65
2019-05-01T09:33:11.049Z,18.27
2019-05-01T09:35:40.197Z,17.35
2019-05-01T09:40:36.504Z,22.20
2019-05-01T09:43:04.710Z,26.07
2019-05-01T09:45:33.136Z,20.37
2019-05-01T09:48:01.320Z,23.25
2019-05-01T09:50:31.592Z,22.58
2019-05-01T09:53:18.968Z,21.62
2019-05-01T09:55:53.575Z,21.57
2019-05-01T09:58:21.793Z,23.07
2019-05-01T10:03:24.995Z,18.42
2019-05-01T10:05:53.289Z,24.15
2019-05-01T10:08:24.312Z,22.02
2019-05-01T10:10:52.924Z,26.60
2019-05-01T10:13:22.445Z,18.92
2019-05-01T10:18:19.992Z,20.25
2019-05-01T10:20:48.200Z,24.12
2019-05-01T10:23:16.502Z,21.00
2019-05-01T10:25:49.829Z,25.37
2019-05-01T10:28:27.067Z,23.00
2019-05-01T10:31:14.222Z,22.10
2019-05-01T10:33:44.813Z,19.60
2019-05-01T10:36:35.287Z,22.35
2019-05-01T10:39:05.125Z,22.85
2019-05-01T10:41:33.427Z,23.38
2019-05-01T10:44:01.840Z,22.52
2019-05-01T10:46:30.184Z,18.73
2019-05-01T10:48:58.476Z,19.50
2019-05-01T10:51:26.746Z,19.12
2019-05-01T10:53:54.913Z,26.45
2019-05-01T10:56:23.632Z,18.48
2019-05-01T10:58:51.930Z,21.68
2019-05-01T11:01:39.840Z,27.67
2019-05-01T11:04:08.077Z,29.72
2019-05-01T11:06:36.375Z,26.97
2019-05-01T11:09:05.117Z,25.62
2019-05-01T11:11:33.466Z,30.12
2019-05-01T11:14:01.634Z,27.32
2019-05-01T11:16:29.983Z,31.10
2019-05-01T11:18:58.387Z,32.85
2019-05-01T11:21:26.825Z,32.03
2019-05-01T11:23:55.105Z,27.27
2019-05-01T11:26:23.424Z,24.35
2019-05-01T11:28:51.756Z,19.52
2019-05-01T11:31:24.348Z,31.33
2019-05-01T11:34:20.721Z,32.58
2019-05-01T11:37:14.359Z,26.97
2019-05-01T11:39:56.551Z,28.45
2019-05-01T11:42:24.763Z,26.82
2019-05-01T11:44:53.067Z,25.65
2019-05-01T11:47:21.411Z,31.27
2019-05-01T11:49:49.982Z,26.75
2019-05-01T11:52:18.159Z,34.80
2019-05-01T11:54:46.529Z,33.80
2019-05-01T11:57:14.893Z,32.13
2019-05-01T11:59:43.132Z,29.70
2019-05-01T12:02:11.314Z,28.02
2019-05-01T12:04:39.523Z,30.20
2019-05-01T12:07:07.699Z,30.95
2019-05-01T12:09:35.900Z,32.15
2019-05-01T12:12:07.571Z,30.50
2019-05-01T12:14:35.916Z,29.23
2019-05-01T12:17:29.095Z,34.15
2019-05-01T12:19:57.443Z,34.35
2019-05-01T12:22:25.632Z,27.80
2019-05-01T12:24:53.793Z,20.27
2019-05-01T12:27:22.079Z,29.05
2019-05-01T12:29:50.306Z,34.08
2019-05-01T12:32:18.459Z,36.77
2019-05-01T12:34:46.655Z,33.13
2019-05-01T12:37:18.309Z,38.25
2019-05-01T12:39:46.865Z,37.67
2019-05-01T12:42:15.830Z,32.60
2019-05-01T12:44:44.175Z,31.53
2019-05-01T12:47:20.629Z,35.60
2019-05-01T12:49:50.121Z,32.20
2019-05-01T12:52:26.809Z,30.72
2019-05-01T12:55:03.636Z,37.00
2019-05-01T12:57:31.820Z,28.25
2019-05-01T13:00:08.504Z,20.35
2019-05-01T13:02:30.145Z,32.30
2019-05-01T13:04:58.461Z,29.70
2019-05-01T13:07:26.754Z,24.30
2019-05-01T13:09:55.188Z,34.33
2019-05-01T13:12:23.451Z,22.00
2019-05-01T13:14:51.590Z,20.32
2019-05-01T13:17:19.778Z,19.73
2019-05-01T13:19:47.957Z,21.52
2019-05-01T13:22:16.219Z,24.05
2019-05-01T13:24:50.558Z,29.23
2019-05-01T13:27:24.732Z,22.85
2019-05-01T13:30:01.758Z,20.37
2019-05-01T13:32:42.180Z,23.05
2019-05-01T13:35:10.599Z,25.23
2019-05-01T13:37:38.860Z,18.62
2019-05-01T13:40:07.863Z,30.52
2019-05-01T13:42:36.116Z,26.97
2019-05-01T13:45:05.270Z,26.80
2019-05-01T13:47:33.487Z,26.07
2019-05-01T13:50:01.894Z,28.00
2019-05-01T13:52:30.115Z,28.42
2019-05-01T13:54:58.602Z,25.00
2019-05-01T13:57:26.885Z,26.52
2019-05-01T13:59:55.040Z,33.10
2019-05-01T14:02:23.360Z,27.37
2019-05-01T14:04:51.497Z,25.10
2019-05-01T14:07:19.978Z,24.57
2019-05-01T14:09:48.255Z,30.25
2019-05-01T14:12:16.436Z,28.80
2019-05-01T14:14:44.700Z,21.05
2019-05-01T14:17:13.044Z,25.92
2019-05-01T14:19:43.514Z,27.48
2019-05-01T14:22:33.976Z,25.57
2019-05-01T14:25:04.046Z,24.15
2019-05-01T14:27:32.224Z,21.87
2019-05-01T14:30:00.544Z,22.10
2019-05-01T14:32:28.750Z,24.05
2019-05-01T14:34:57.048Z,27.55
2019-05-01T14:37:29.788Z,21.15
2019-05-01T14:39:55.097Z,26.27
2019-05-01T14:42:23.271Z,24.45
2019-05-01T14:44:51.712Z,16.93
2019-05-01T14:47:19.907Z,22.32
2019-05-01T14:49:48.098Z,23.73
2019-05-01T14:52:16.372Z,21.73
2019-05-01T14:54:44.758Z,19.60
2019-05-01T14:57:12.968Z,21.87
2019-05-01T14:59:41.177Z,19.07
2019-05-01T15:02:09.340Z,24.95
2019-05-01T15:04:37.591Z,19.35
2019-05-01T15:07:05.832Z,19.52
2019-05-01T15:09:34.111Z,22.00
2019-05-01T15:12:04.086Z,15.53
2019-05-01T15:14:54.270Z,22.85
2019-05-01T15:17:25.632Z,21.85
2019-05-01T15:20:01.202Z,23.57
2019-05-01T15:22:29.436Z,22.82
2019-05-01T15:24:57.760Z,26.60
2019-05-01T15:27:26.012Z,28.10
2019-05-01T15:29:54.262Z,25.62
2019-05-01T15:32:22.481Z,23.60
2019-05-01T15:34:50.720Z,25.08
2019-05-01T15:37:18.938Z,23.47
2019-05-01T15:39:55.686Z,22.30
2019-05-01T15:42:42.881Z,26.33
2019-05-01T15:45:11.226Z,23.67
2019-05-01T15:47:39.413Z,19.65
2019-05-01T15:50:08.315Z,19.30
2019-05-01T15:52:36.776Z,22.40
2019-05-01T15:55:05.744Z,22.67
2019-05-01T15:57:34.337Z,22.97
2019-05-01T16:00:02.493Z,13.32
2019-05-01T16:02:31.076Z,16.65
2019-05-01T16:04:59.340Z,25.32
2019-05-01T16:07:27.501Z,14.05
2019-05-01T16:09:55.699Z,16.05
2019-05-01T16:12:32.309Z,20.68
2019-05-01T16:15:00.478Z,17.75
2019-05-01T16:17:28.670Z,23.07
2019-05-01T16:19:56.887Z,23.00
2019-05-01T16:22:25.208Z,20.10
2019-05-01T16:24:53.545Z,12.93
2019-05-01T16:27:21.704Z,18.37
2019-05-01T16:29:49.974Z,23.47
2019-05-01T16:32:18.146Z,20.77
2019-05-01T16:34:46.577Z,22.32
2019-05-01T16:37:14.786Z,19.32
2019-05-01T16:39:53.462Z,22.42
2019-05-01T16:42:34.581Z,19.62
2019-05-01T16:45:04.942Z,21.07
2019-05-01T16:47:33.571Z,25.65
2019-05-01T16:50:01.826Z,18.62
2019-05-01T16:52:32.035Z,17.95
2019-05-01T16:55:00.261Z,16.52
2019-05-01T16:57:28.533Z,20.23
2019-05-01T16:59:56.700Z,22.27
2019-05-01T17:02:42.494Z,17.27
2019-05-01T17:05:31.174Z,24.05
2019-05-01T17:08:35.568Z,23.50
2019-05-01T17:10:54.006Z,17.35
2019-05-01T17:13:22.280Z,19.48
2019-05-01T17:15:50.858Z,19.35
2019-05-01T17:18:19.830Z,22.25
2019-05-01T17:20:48.054Z,27.27
2019-05-01T17:23:16.253Z,27.42
2019-05-01T17:25:44.552Z,21.62
2019-05-01T17:28:12.783Z,21.85
2019-05-01T17:30:43.450Z,23.18
2019-05-01T17:33:20.066Z,25.08
2019-05-01T17:35:43.140Z,22.45
2019-05-01T17:38:11.546Z,22.45
2019-05-01T17:40:40.077Z,22.67
2019-05-01T17:43:13.404Z,18.07
2019-05-01T17:48:05.554Z,21.77
2019-05-01T17:50:33.739Z,23.77
2019-05-01T17:53:01.915Z,17.10
2019-05-01T17:55:30.191Z,16.45
2019-05-01T17:57:58.403Z,19.10
2019-05-01T18:00:41.370Z,14.93
2019-05-01T18:03:31.616Z,14.00
2019-05-01T18:06:13.278Z,16.93
2019-05-01T18:08:41.509Z,8.65
2019-05-01T18:11:14.224Z,11.78
2019-05-01T18:16:06.975Z,17.92
2019-05-01T18:18:35.167Z,16.77
2019-05-01T18:21:03.387Z,20.57
2019-05-01T18:23:53.033Z,17.30
2019-05-01T18:26:38.771Z,18.85
2019-05-01T18:29:14.302Z,23.40
2019-05-01T18:31:42.728Z,16.85
2019-05-01T18:34:11.026Z,16.05
2019-05-01T18:36:44.552Z,16.30
2019-05-01T18:39:35.776Z,15.70
2019-05-01T18:42:06.186Z,22.50
2019-05-01T18:44:34.372Z,15.95
2019-05-01T18:47:02.722Z,18.67
2019-05-01T18:49:30.952Z,22.73
2019-05-01T18:51:59.192Z,14.60
2019-05-01T18:54:30.332Z,15.28
2019-05-01T18:56:57.429Z,16.23
2019-05-01T18:59:25.922Z,23.12
2019-05-01T19:01:54.874Z,20.02
2019-05-01T19:04:24.535Z,21.33
2019-05-01T19:06:52.848Z,20.25
2019-05-01T19:09:29.665Z,20.45
2019-05-01T19:14:18.515Z,18.45
2019-05-01T19:16:47.127Z,19.70
2019-05-01T19:19:15.642Z,22.15
2019-05-01T19:21:46.615Z,13.38
2019-05-01T19:24:14.315Z,17.70
2019-05-01T19:26:44.019Z,20.25
2019-05-01T19:29:12.267Z,22.65
2019-05-01T19:31:40.634Z,19.05
2019-05-01T19:34:09.038Z,23.67
2019-05-01T19:36:40.403Z,22.35
2019-05-01T19:39:11.675Z,20.80
2019-05-01T19:41:38.112Z,21.62
2019-05-01T19:44:06.402Z,22.13
2019-05-01T19:46:34.637Z,24.47
2019-05-01T19:49:02.786Z,26.48
2019-05-01T19:51:31.162Z,30.60
2019-05-01T19:53:59.415Z,17.73
2019-05-01T19:56:27.696Z,24.25
2019-05-01T19:58:55.958Z,21.17
2019-05-01T20:01:24.139Z,20.55
2019-05-01T20:03:52.378Z,21.82
2019-05-01T20:06:20.553Z,21.85
2019-05-01T20:08:48.785Z,22.27
2019-05-01T20:11:17.062Z,28.02
2019-05-01T20:13:45.361Z,20.37
2019-05-01T20:16:14.092Z,21.77
2019-05-01T20:18:42.349Z,20.48
2019-05-01T20:21:10.615Z,25.80
2019-05-01T20:23:38.783Z,23.30
2019-05-01T20:26:07.029Z,26.73
2019-05-01T20:28:37.220Z,21.93
2019-05-01T20:31:05.231Z,20.70
2019-05-01T20:33:38.651Z,23.15
2019-05-01T20:36:05.364Z,25.37
2019-05-01T20:38:33.341Z,23.18
2019-05-01T20:41:01.513Z,32.35
2019-05-01T20:43:29.674Z,26.55
2019-05-01T20:45:57.957Z,21.37
2019-05-01T20:48:26.208Z,25.62
2019-05-01T20:50:54.453Z,24.72
2019-05-01T20:53:22.751Z,22.77
2019-05-01T20:56:11.682Z,19.62
2019-05-01T20:58:39.822Z,21.68
2019-05-01T21:01:08.485Z,21.30
2019-05-01T21:03:38.413Z,23.15
2019-05-01T21:06:15.768Z,26.00
2019-05-01T21:08:48.218Z,19.00
2019-05-01T21:11:21.185Z,24.65
2019-05-01T21:13:49.381Z,24.10
2019-05-01T21:16:17.611Z,25.37
2019-05-01T21:18:45.758Z,19.32
2019-05-01T21:21:14.236Z,26.00
2019-05-01T21:23:43.461Z,24.67
2019-05-01T21:26:13.299Z,21.82
2019-05-01T21:28:42.978Z,24.90
2019-05-01T21:31:13.647Z,22.27
2019-05-01T21:33:46.401Z,21.60
2019-05-01T21:36:11.348Z,23.20
2019-05-01T21:38:39.449Z,26.35
2019-05-01T21:41:07.639Z,23.60
2019-05-01T21:43:37.136Z,26.33
2019-05-01T21:46:05.443Z,22.67
2019-05-01T21:48:33.640Z,22.35
2019-05-01T21:51:03.345Z,19.00
2019-05-01T21:53:32.813Z,20.02
2019-05-01T21:56:02.146Z,24.25
2019-05-01T21:58:33.385Z,27.70
2019-05-01T22:01:01.718Z,28.90
2019-05-01T22:03:29.880Z,23.85
2019-05-01T22:05:58.040Z,23.98
2019-05-01T22:08:27.032Z,23.25
2019-05-01T22:10:57.639Z,26.80
2019-05-01T22:13:25.587Z,23.95
2019-05-01T22:15:58.535Z,22.13
2019-05-01T22:18:51.180Z,26.30
2019-05-01T22:21:41.458Z,22.80
2019-05-01T22:24:17.714Z,23.85
2019-05-01T22:26:53.480Z,26.00
2019-05-01T22:29:27.229Z,26.65
2019-05-01T22:32:12.258Z,21.35
2019-05-01T22:34:59.888Z,24.47
2019-05-01T22:37:28.114Z,22.30
2019-05-01T22:40:06.139Z,22.65
2019-05-01T22:42:34.314Z,16.05
2019-05-01T22:45:02.484Z,27.65
2019-05-01T22:47:30.919Z,22.90
2019-05-01T22:49:59.121Z,24.87
2019-05-01T22:52:28.524Z,21.95
2019-05-01T22:54:56.740Z,23.65
2019-05-01T22:57:24.870Z,22.52
2019-05-01T22:59:53.045Z,22.00
2019-05-01T23:02:28.333Z,18.20
2019-05-01T23:04:57.499Z,22.40
2019-05-01T23:07:25.828Z,22.55
2019-05-01T23:09:53.982Z,26.27
2019-05-01T23:12:22.112Z,18.75
2019-05-01T23:14:50.351Z,20.32
2019-05-01T23:17:24.585Z,20.30
2019-05-01T23:19:52.758Z,13.22
2019-05-01T23:22:22.738Z,22.95
2019-05-01T23:24:50.931Z,20.72
2019-05-01T23:27:19.077Z,17.87
2019-05-01T23:29:47.382Z,23.95
2019-05-01T23:32:15.596Z,20.50
2019-05-01T23:34:43.852Z,22.45
2019-05-01T23:37:12.118Z,24.63
2019-05-01T23:39:42.135Z,23.73
2019-05-01T23:42:10.184Z,22.10
2019-05-01T23:44:42.853Z,21.82
2019-05-01T23:47:08.228Z,21.50
2019-05-01T23:49:36.547Z,23.00
2019-05-01T23:52:05.227Z,19.87
2019-05-01T23:54:33.507Z,24.90
2019-05-01T23:57:01.663Z,23.52
2019-05-01T23:59:29.837Z,26.57
